sensor_id;sensor_type;location;lat;lon;timestamp;temperature;humidity
4050;DHT22;2039;50.894;6.888;2022-10-17T00:01:57;15.70;99.90
4050;DHT22;2039;50.894;6.888;2022-10-17T00:04:22;15.80;99.90
4050;DHT22;2039;50.894;6.888;2022-10-17T00:06:48;15.80;99.90
4050;DHT22;2039;50.894;6.888;2022-10-17T00:09:14;15.80;99.90
4050;DHT22;2039;50.894;6.888;2022-10-17T00:11:39;15.70;99.90
4050;DHT22;2039;50.894;6.888;2022-10-17T00:14:05;15.80;99.90
4050;DHT22;2039;50.894;6.888;2022-10-17T00:16:33;15.80;99.90
4050;DHT22;2039;50.894;6.888;2022-10-17T00:19:01;15.70;99.90
4050;DHT22;2039;50.894;6.888;2022-10-17T00:21:27;15.70;99.90
4050;DHT22;2039;50.894;6.888;2022-10-17T00:23:53;15.70;99.90
4050;DHT22;2039;50.894;6.888;2022-10-17T00:26:19;15.70;99.90
4050;DHT22;2039;50.894;6.888;2022-10-17T00:28:51;15.70;99.90
4050;DHT22;2039;50.894;6.888;2022-10-17T00:31:19;15.60;99.90
4050;DHT22;2039;50.894;6.888;2022-10-17T00:33:45;15.60;99.90
4050;DHT22;2039;50.894;6.888;2022-10-17T00:36:17;15.60;99.90
4050;DHT22;2039;50.894;6.888;2022-10-17T00:38:45;15.70;99.90
4050;DHT22;2039;50.894;6.888;2022-10-17T00:41:14;15.70;99.90
4050;DHT22;2039;50.894;6.888;2022-10-17T00:44:00;15.60;99.90
4050;DHT22;2039;50.894;6.888;2022-10-17T00:46:32;15.60;99.90
4050;DHT22;2039;50.894;6.888;2022-10-17T00:49:05;15.60;99.90
4050;DHT22;2039;50.894;6.888;2022-10-17T00:54:03;15.60;99.90
4050;DHT22;2039;50.894;6.888;2022-10-17T00:56:29;15.60;99.90
4050;DHT22;2039;50.894;6.888;2022-10-17T00:58:55;15.60;99.90
4050;DHT22;2039;50.894;6.888;2022-10-17T01:01:21;15.60;99.90
4050;DHT22;2039;50.894;6.888;2022-10-17T01:03:47;15.60;99.90
4050;DHT22;2039;50.894;6.888;2022-10-17T01:06:12;15.60;99.90
4050;DHT22;2039;50.894;6.888;2022-10-17T01:08:38;15.50;99.90
4050;DHT22;2039;50.894;6.888;2022-10-17T01:11:36;15.50;99.90
4050;DHT22;2039;50.894;6.888;2022-10-17T01:14:22;15.50;99.90
4050;DHT22;2039;50.894;6.888;2022-10-17T01:17:12;15.50;99.90
4050;DHT22;2039;50.894;6.888;2022-10-17T01:22:51;15.40;99.90
4050;DHT22;2039;50.894;6.888;2022-10-17T01:25:30;15.40;99.90
4050;DHT22;2039;50.894;6.888;2022-10-17T01:30:54;15.30;99.90
4050;DHT22;2039;50.894;6.888;2022-10-17T01:33:50;15.30;99.90
4050;DHT22;2039;50.894;6.888;2022-10-17T01:44:48;15.30;99.90
4050;DHT22;2039;50.894;6.888;2022-10-17T01:47:19;15.30;99.90
4050;DHT22;2039;50.894;6.888;2022-10-17T01:49:48;15.20;99.90
4050;DHT22;2039;50.894;6.888;2022-10-17T01:52:31;15.20;99.90
4050;DHT22;2039;50.894;6.888;2022-10-17T01:55:07;15.20;99.90
4050;DHT22;2039;50.894;6.888;2022-10-17T01:57:39;15.20;99.90
4050;DHT22;2039;50.894;6.888;2022-10-17T02:00:10;15.20;99.90
4050;DHT22;2039;50.894;6.888;2022-10-17T02:02:38;15.20;99.90
4050;DHT22;2039;50.894;6.888;2022-10-17T02:05:06;15.20;99.90
4050;DHT22;2039;50.894;6.888;2022-10-17T02:07:32;15.20;99.90
4050;DHT22;2039;50.894;6.888;2022-10-17T02:09:58;15.20;99.90
4050;DHT22;2039;50.894;6.888;2022-10-17T02:20:21;15.10;99.90
4050;DHT22;2039;50.894;6.888;2022-10-17T02:22:56;15.10;99.90
4050;DHT22;2039;50.894;6.888;2022-10-17T02:25:42;15.10;99.90
4050;DHT22;2039;50.894;6.888;2022-10-17T02:28:35;15.10;99.90
4050;DHT22;2039;50.894;6.888;2022-10-17T02:31:10;15.10;99.90
4050;DHT22;2039;50.894;6.888;2022-10-17T02:33:57;15.10;99.90
4050;DHT22;2039;50.894;6.888;2022-10-17T02:36:29;15.00;99.90
4050;DHT22;2039;50.894;6.888;2022-10-17T02:38:57;15.00;99.90
4050;DHT22;2039;50.894;6.888;2022-10-17T02:41:24;15.00;99.90
4050;DHT22;2039;50.894;6.888;2022-10-17T02:43:52;15.00;99.90
4050;DHT22;2039;50.894;6.888;2022-10-17T02:46:20;15.00;99.90
4050;DHT22;2039;50.894;6.888;2022-10-17T02:49:12;15.00;99.90
4050;DHT22;2039;50.894;6.888;2022-10-17T02:52:00;15.00;99.90
4050;DHT22;2039;50.894;6.888;2022-10-17T02:57:01;15.00;99.90
4050;DHT22;2039;50.894;6.888;2022-10-17T02:59:32;15.00;99.90
4050;DHT22;2039;50.894;6.888;2022-10-17T03:02:02;15.10;99.90
4050;DHT22;2039;50.894;6.888;2022-10-17T03:04:32;15.10;99.90
4050;DHT22;2039;50.894;6.888;2022-10-17T03:06:58;15.10;99.90
4050;DHT22;2039;50.894;6.888;2022-10-17T03:09:23;15.10;99.90
4050;DHT22;2039;50.894;6.888;2022-10-17T03:11:49;15.10;99.90
4050;DHT22;2039;50.894;6.888;2022-10-17T03:14:15;15.10;99.90
4050;DHT22;2039;50.894;6.888;2022-10-17T03:16:41;15.10;99.90
4050;DHT22;2039;50.894;6.888;2022-10-17T03:19:06;15.10;99.90
4050;DHT22;2039;50.894;6.888;2022-10-17T03:21:33;15.20;99.90
4050;DHT22;2039;50.894;6.888;2022-10-17T03:24:01;15.20;99.90
4050;DHT22;2039;50.894;6.888;2022-10-17T03:26:26;15.20;99.90
4050;DHT22;2039;50.894;6.888;2022-10-17T03:28:54;15.20;99.90
4050;DHT22;2039;50.894;6.888;2022-10-17T03:31:20;15.20;99.90
4050;DHT22;2039;50.894;6.888;2022-10-17T03:33:46;15.20;99.90
4050;DHT22;2039;50.894;6.888;2022-10-17T03:36:14;15.10;99.90
4050;DHT22;2039;50.894;6.888;2022-10-17T03:38:40;15.20;99.90
4050;DHT22;2039;50.894;6.888;2022-10-17T03:41:06;15.20;99.90
4050;DHT22;2039;50.894;6.888;2022-10-17T03:43:32;15.20;99.90
4050;DHT22;2039;50.894;6.888;2022-10-17T03:45:59;15.20;99.90
4050;DHT22;2039;50.894;6.888;2022-10-17T03:48:25;15.20;99.90
4050;DHT22;2039;50.894;6.888;2022-10-17T03:50:51;15.20;99.90
4050;DHT22;2039;50.894;6.888;2022-10-17T03:53:17;15.30;99.90
4050;DHT22;2039;50.894;6.888;2022-10-17T03:55:43;15.30;99.90
4050;DHT22;2039;50.894;6.888;2022-10-17T03:58:12;15.40;99.90
4050;DHT22;2039;50.894;6.888;2022-10-17T04:00:38;15.40;99.90
4050;DHT22;2039;50.894;6.888;2022-10-17T04:03:03;15.40;99.90
4050;DHT22;2039;50.894;6.888;2022-10-17T04:05:29;15.50;99.90
4050;DHT22;2039;50.894;6.888;2022-10-17T04:07:54;15.50;99.90
4050;DHT22;2039;50.894;6.888;2022-10-17T04:10:20;15.40;99.90
4050;DHT22;2039;50.894;6.888;2022-10-17T04:12:46;15.40;99.90
4050;DHT22;2039;50.894;6.888;2022-10-17T04:15:11;15.40;99.90
4050;DHT22;2039;50.894;6.888;2022-10-17T04:17:37;15.50;99.90
4050;DHT22;2039;50.894;6.888;2022-10-17T04:20:03;15.40;99.90
4050;DHT22;2039;50.894;6.888;2022-10-17T04:22:29;15.50;99.90
4050;DHT22;2039;50.894;6.888;2022-10-17T04:24:54;15.50;99.90
4050;DHT22;2039;50.894;6.888;2022-10-17T04:27:20;15.50;99.90
4050;DHT22;2039;50.894;6.888;2022-10-17T04:29:46;15.50;99.90
4050;DHT22;2039;50.894;6.888;2022-10-17T04:32:11;15.50;99.90
4050;DHT22;2039;50.894;6.888;2022-10-17T04:34:37;15.50;99.90
4050;DHT22;2039;50.894;6.888;2022-10-17T04:37:12;15.50;99.90
4050;DHT22;2039;50.894;6.888;2022-10-17T04:39:38;15.40;99.90
4050;DHT22;2039;50.894;6.888;2022-10-17T04:42:03;15.50;99.90
4050;DHT22;2039;50.894;6.888;2022-10-17T04:44:29;15.40;99.90
4050;DHT22;2039;50.894;6.888;2022-10-17T04:46:55;15.40;99.90
4050;DHT22;2039;50.894;6.888;2022-10-17T04:49:21;15.40;99.90
4050;DHT22;2039;50.894;6.888;2022-10-17T04:51:47;15.40;99.90
4050;DHT22;2039;50.894;6.888;2022-10-17T04:54:15;15.40;99.90
4050;DHT22;2039;50.894;6.888;2022-10-17T04:56:41;15.40;99.90
4050;DHT22;2039;50.894;6.888;2022-10-17T04:59:07;15.40;99.90
4050;DHT22;2039;50.894;6.888;2022-10-17T05:01:32;15.40;99.90
4050;DHT22;2039;50.894;6.888;2022-10-17T05:03:58;15.40;99.90
4050;DHT22;2039;50.894;6.888;2022-10-17T05:06:25;15.40;99.90
4050;DHT22;2039;50.894;6.888;2022-10-17T05:08:56;15.40;99.90
4050;DHT22;2039;50.894;6.888;2022-10-17T05:11:24;15.40;99.90
4050;DHT22;2039;50.894;6.888;2022-10-17T05:13:52;15.50;99.90
4050;DHT22;2039;50.894;6.888;2022-10-17T05:16:19;15.60;99.90
4050;DHT22;2039;50.894;6.888;2022-10-17T05:18:50;15.60;99.90
4050;DHT22;2039;50.894;6.888;2022-10-17T05:21:16;15.60;99.90
4050;DHT22;2039;50.894;6.888;2022-10-17T05:23:42;15.60;99.90
4050;DHT22;2039;50.894;6.888;2022-10-17T05:26:08;15.60;99.90
4050;DHT22;2039;50.894;6.888;2022-10-17T05:28:34;15.60;99.90
4050;DHT22;2039;50.894;6.888;2022-10-17T05:31:07;15.60;99.90
4050;DHT22;2039;50.894;6.888;2022-10-17T05:33:34;15.70;99.90
4050;DHT22;2039;50.894;6.888;2022-10-17T05:36:00;15.60;99.90
4050;DHT22;2039;50.894;6.888;2022-10-17T05:38:28;15.60;99.90
4050;DHT22;2039;50.894;6.888;2022-10-17T05:40:58;15.70;99.90
4050;DHT22;2039;50.894;6.888;2022-10-17T05:43:24;15.70;99.90
4050;DHT22;2039;50.894;6.888;2022-10-17T05:45:50;15.70;99.90
4050;DHT22;2039;50.894;6.888;2022-10-17T05:48:16;15.60;99.90
4050;DHT22;2039;50.894;6.888;2022-10-17T05:50:41;15.60;99.90
4050;DHT22;2039;50.894;6.888;2022-10-17T05:53:07;15.70;99.90
4050;DHT22;2039;50.894;6.888;2022-10-17T05:55:33;15.70;99.90
4050;DHT22;2039;50.894;6.888;2022-10-17T05:57:59;15.70;99.90
4050;DHT22;2039;50.894;6.888;2022-10-17T06:00:28;15.70;99.90
4050;DHT22;2039;50.894;6.888;2022-10-17T06:03:00;15.70;99.90
4050;DHT22;2039;50.894;6.888;2022-10-17T06:05:26;15.70;99.90
4050;DHT22;2039;50.894;6.888;2022-10-17T06:07:52;15.70;99.90
4050;DHT22;2039;50.894;6.888;2022-10-17T06:10:18;15.70;99.90
4050;DHT22;2039;50.894;6.888;2022-10-17T06:12:44;15.70;99.90
4050;DHT22;2039;50.894;6.888;2022-10-17T06:15:10;15.80;99.90
4050;DHT22;2039;50.894;6.888;2022-10-17T06:17:36;15.80;99.90
4050;DHT22;2039;50.894;6.888;2022-10-17T06:20:02;15.80;99.90
4050;DHT22;2039;50.894;6.888;2022-10-17T06:22:28;15.90;99.90
4050;DHT22;2039;50.894;6.888;2022-10-17T06:24:54;15.90;99.90
4050;DHT22;2039;50.894;6.888;2022-10-17T06:27:20;15.90;99.90
4050;DHT22;2039;50.894;6.888;2022-10-17T06:29:46;15.90;99.90
4050;DHT22;2039;50.894;6.888;2022-10-17T06:32:12;16.00;99.90
4050;DHT22;2039;50.894;6.888;2022-10-17T06:34:38;16.00;99.90
4050;DHT22;2039;50.894;6.888;2022-10-17T06:37:04;16.00;99.90
4050;DHT22;2039;50.894;6.888;2022-10-17T06:39:29;16.00;99.90
4050;DHT22;2039;50.894;6.888;2022-10-17T06:42:02;16.00;99.90
4050;DHT22;2039;50.894;6.888;2022-10-17T06:44:28;16.10;99.90
4050;DHT22;2039;50.894;6.888;2022-10-17T06:46:56;16.10;99.90
4050;DHT22;2039;50.894;6.888;2022-10-17T06:49:22;16.20;99.90
4050;DHT22;2039;50.894;6.888;2022-10-17T06:51:48;16.20;99.90
4050;DHT22;2039;50.894;6.888;2022-10-17T06:54:14;16.10;99.90
4050;DHT22;2039;50.894;6.888;2022-10-17T06:56:39;16.20;99.90
4050;DHT22;2039;50.894;6.888;2022-10-17T06:59:05;16.20;99.90
4050;DHT22;2039;50.894;6.888;2022-10-17T07:01:31;16.30;99.90
4050;DHT22;2039;50.894;6.888;2022-10-17T07:03:58;16.30;99.90
4050;DHT22;2039;50.894;6.888;2022-10-17T07:06:24;16.40;99.90
4050;DHT22;2039;50.894;6.888;2022-10-17T07:08:50;16.50;99.90
4050;DHT22;2039;50.894;6.888;2022-10-17T07:11:18;16.60;99.90
4050;DHT22;2039;50.894;6.888;2022-10-17T07:13:44;16.60;99.90
4050;DHT22;2039;50.894;6.888;2022-10-17T07:16:11;16.70;99.90
4050;DHT22;2039;50.894;6.888;2022-10-17T07:18:37;16.70;99.90
4050;DHT22;2039;50.894;6.888;2022-10-17T07:21:03;16.70;99.90
4050;DHT22;2039;50.894;6.888;2022-10-17T07:23:29;16.70;99.90
4050;DHT22;2039;50.894;6.888;2022-10-17T07:26:00;16.80;99.90
4050;DHT22;2039;50.894;6.888;2022-10-17T07:28:27;16.90;99.90
4050;DHT22;2039;50.894;6.888;2022-10-17T07:30:53;16.90;99.90
4050;DHT22;2039;50.894;6.888;2022-10-17T07:33:19;16.90;99.90
4050;DHT22;2039;50.894;6.888;2022-10-17T07:35:45;17.00;99.90
4050;DHT22;2039;50.894;6.888;2022-10-17T07:38:10;17.00;99.90
4050;DHT22;2039;50.894;6.888;2022-10-17T07:40:36;17.10;99.90
4050;DHT22;2039;50.894;6.888;2022-10-17T07:43:02;17.10;99.90
4050;DHT22;2039;50.894;6.888;2022-10-17T07:45:27;17.20;99.90
4050;DHT22;2039;50.894;6.888;2022-10-17T07:47:56;17.30;99.90
4050;DHT22;2039;50.894;6.888;2022-10-17T07:50:23;17.30;99.90
4050;DHT22;2039;50.894;6.888;2022-10-17T07:52:48;17.30;99.90
4050;DHT22;2039;50.894;6.888;2022-10-17T07:55:14;17.50;99.90
4050;DHT22;2039;50.894;6.888;2022-10-17T07:57:40;17.60;99.90
4050;DHT22;2039;50.894;6.888;2022-10-17T08:00:07;17.60;99.90
4050;DHT22;2039;50.894;6.888;2022-10-17T08:02:33;17.70;99.90
4050;DHT22;2039;50.894;6.888;2022-10-17T08:04:58;17.70;99.90
4050;DHT22;2039;50.894;6.888;2022-10-17T08:07:24;17.80;99.90
4050;DHT22;2039;50.894;6.888;2022-10-17T08:09:50;17.80;99.90
4050;DHT22;2039;50.894;6.888;2022-10-17T08:12:16;17.90;99.90
4050;DHT22;2039;50.894;6.888;2022-10-17T08:14:42;18.00;99.90
4050;DHT22;2039;50.894;6.888;2022-10-17T08:17:08;18.00;99.90
4050;DHT22;2039;50.894;6.888;2022-10-17T08:19:37;18.10;99.90
4050;DHT22;2039;50.894;6.888;2022-10-17T08:22:03;18.10;99.90
4050;DHT22;2039;50.894;6.888;2022-10-17T08:24:29;18.10;99.90
4050;DHT22;2039;50.894;6.888;2022-10-17T08:26:54;18.20;99.90
4050;DHT22;2039;50.894;6.888;2022-10-17T08:29:22;18.20;99.90
4050;DHT22;2039;50.894;6.888;2022-10-17T08:31:48;18.30;99.90
4050;DHT22;2039;50.894;6.888;2022-10-17T08:34:14;18.30;99.90
4050;DHT22;2039;50.894;6.888;2022-10-17T08:36:40;18.30;99.90
4050;DHT22;2039;50.894;6.888;2022-10-17T08:39:06;18.40;99.90
4050;DHT22;2039;50.894;6.888;2022-10-17T08:47:11;18.60;99.90
4050;DHT22;2039;50.894;6.888;2022-10-17T08:52:35;18.70;99.90
4050;DHT22;2039;50.894;6.888;2022-10-17T08:55:04;18.80;99.90
4050;DHT22;2039;50.894;6.888;2022-10-17T08:57:37;18.80;99.90
4050;DHT22;2039;50.894;6.888;2022-10-17T09:00:06;18.80;99.90
4050;DHT22;2039;50.894;6.888;2022-10-17T09:10:57;18.90;99.90
4050;DHT22;2039;50.894;6.888;2022-10-17T09:16:37;18.90;99.90
4050;DHT22;2039;50.894;6.888;2022-10-17T09:19:16;18.90;99.90
4050;DHT22;2039;50.894;6.888;2022-10-17T09:21:48;18.90;99.90
4050;DHT22;2039;50.894;6.888;2022-10-17T09:24:32;19.00;99.90
4050;DHT22;2039;50.894;6.888;2022-10-17T09:26:59;19.00;99.90
4050;DHT22;2039;50.894;6.888;2022-10-17T09:29:26;19.00;99.90
4050;DHT22;2039;50.894;6.888;2022-10-17T09:32:03;19.00;99.90
4050;DHT22;2039;50.894;6.888;2022-10-17T09:34:31;19.10;99.90
4050;DHT22;2039;50.894;6.888;2022-10-17T09:36:58;19.10;99.90
4050;DHT22;2039;50.894;6.888;2022-10-17T09:39:24;19.10;99.90
4050;DHT22;2039;50.894;6.888;2022-10-17T09:41:53;19.20;99.90
4050;DHT22;2039;50.894;6.888;2022-10-17T09:49:45;19.30;99.90
4050;DHT22;2039;50.894;6.888;2022-10-17T09:57:27;19.40;99.90
4050;DHT22;2039;50.894;6.888;2022-10-17T10:00:03;19.40;99.90
4050;DHT22;2039;50.894;6.888;2022-10-17T10:02:30;19.40;99.90
4050;DHT22;2039;50.894;6.888;2022-10-17T10:05:13;19.50;99.90
4050;DHT22;2039;50.894;6.888;2022-10-17T10:07:40;19.60;99.90
4050;DHT22;2039;50.894;6.888;2022-10-17T10:10:23;19.80;99.90
4050;DHT22;2039;50.894;6.888;2022-10-17T10:13:21;20.00;99.90
4050;DHT22;2039;50.894;6.888;2022-10-17T10:15:50;20.20;99.90
4050;DHT22;2039;50.894;6.888;2022-10-17T10:21:12;20.40;99.90
4050;DHT22;2039;50.894;6.888;2022-10-17T10:23:43;20.60;99.90
4050;DHT22;2039;50.894;6.888;2022-10-17T10:26:24;20.50;99.90
4050;DHT22;2039;50.894;6.888;2022-10-17T10:31:26;20.40;99.90
4050;DHT22;2039;50.894;6.888;2022-10-17T10:33:52;20.30;99.90
4050;DHT22;2039;50.894;6.888;2022-10-17T10:36:18;20.30;99.90
4050;DHT22;2039;50.894;6.888;2022-10-17T10:38:53;20.40;99.90
4050;DHT22;2039;50.894;6.888;2022-10-17T10:41:29;20.40;99.90
4050;DHT22;2039;50.894;6.888;2022-10-17T10:44:13;20.40;99.90
4050;DHT22;2039;50.894;6.888;2022-10-17T10:46:42;20.40;99.90
4050;DHT22;2039;50.894;6.888;2022-10-17T10:49:28;20.30;99.90
4050;DHT22;2039;50.894;6.888;2022-10-17T10:51:56;20.30;99.90
4050;DHT22;2039;50.894;6.888;2022-10-17T10:54:29;20.20;99.90
4050;DHT22;2039;50.894;6.888;2022-10-17T10:56:59;20.20;99.90
4050;DHT22;2039;50.894;6.888;2022-10-17T10:59:36;20.30;99.90
4050;DHT22;2039;50.894;6.888;2022-10-17T11:13:26;20.40;99.90
4050;DHT22;2039;50.894;6.888;2022-10-17T11:16:03;20.40;99.90
4050;DHT22;2039;50.894;6.888;2022-10-17T11:18:39;20.40;99.90
4050;DHT22;2039;50.894;6.888;2022-10-17T11:21:15;20.50;99.90
4050;DHT22;2039;50.894;6.888;2022-10-17T11:23:57;20.60;99.90
4050;DHT22;2039;50.894;6.888;2022-10-17T11:26:26;20.70;99.90
4050;DHT22;2039;50.894;6.888;2022-10-17T11:28:54;20.70;99.90
4050;DHT22;2039;50.894;6.888;2022-10-17T11:31:25;20.70;99.90
4050;DHT22;2039;50.894;6.888;2022-10-17T11:36:30;20.80;99.90
4050;DHT22;2039;50.894;6.888;2022-10-17T11:39:09;20.70;99.90
4050;DHT22;2039;50.894;6.888;2022-10-17T11:41:46;20.70;99.90
4050;DHT22;2039;50.894;6.888;2022-10-17T11:44:34;20.80;99.90
4050;DHT22;2039;50.894;6.888;2022-10-17T11:47:05;20.90;99.90
4050;DHT22;2039;50.894;6.888;2022-10-17T11:49:38;20.90;99.90
4050;DHT22;2039;50.894;6.888;2022-10-17T11:54:55;20.80;99.90
4050;DHT22;2039;50.894;6.888;2022-10-17T11:57:43;20.70;99.90
4050;DHT22;2039;50.894;6.888;2022-10-17T12:06:38;20.70;99.90
4050;DHT22;2039;50.894;6.888;2022-10-17T12:09:37;20.70;99.90
4050;DHT22;2039;50.894;6.888;2022-10-17T12:11:51;20.80;99.90
4050;DHT22;2039;50.894;6.888;2022-10-17T12:14:42;20.80;99.90
4050;DHT22;2039;50.894;6.888;2022-10-17T12:17:34;20.80;99.90
4050;DHT22;2039;50.894;6.888;2022-10-17T12:25:25;20.70;99.90
4050;DHT22;2039;50.894;6.888;2022-10-17T12:30:28;20.70;99.90
4050;DHT22;2039;50.894;6.888;2022-10-17T12:35:31;20.70;99.90
4050;DHT22;2039;50.894;6.888;2022-10-17T12:56:08;20.50;99.90
4050;DHT22;2039;50.894;6.888;2022-10-17T12:58:34;20.50;99.90
4050;DHT22;2039;50.894;6.888;2022-10-17T13:01:01;20.50;99.90
4050;DHT22;2039;50.894;6.888;2022-10-17T13:03:31;20.60;99.90
4050;DHT22;2039;50.894;6.888;2022-10-17T13:06:15;20.60;99.90
4050;DHT22;2039;50.894;6.888;2022-10-17T13:08:47;20.70;99.90
4050;DHT22;2039;50.894;6.888;2022-10-17T13:11:13;20.70;99.90
4050;DHT22;2039;50.894;6.888;2022-10-17T13:13:48;20.70;99.90
4050;DHT22;2039;50.894;6.888;2022-10-17T13:16:31;20.60;99.90
4050;DHT22;2039;50.894;6.888;2022-10-17T13:19:02;20.70;99.90
4050;DHT22;2039;50.894;6.888;2022-10-17T13:21:29;20.70;99.90
4050;DHT22;2039;50.894;6.888;2022-10-17T13:23:54;20.80;99.90
4050;DHT22;2039;50.894;6.888;2022-10-17T13:26:27;20.70;99.90
4050;DHT22;2039;50.894;6.888;2022-10-17T13:29:10;20.80;99.90
4050;DHT22;2039;50.894;6.888;2022-10-17T13:31:38;20.80;99.90
4050;DHT22;2039;50.894;6.888;2022-10-17T13:34:16;20.80;99.90
4050;DHT22;2039;50.894;6.888;2022-10-17T13:36:45;20.80;99.90
4050;DHT22;2039;50.894;6.888;2022-10-17T13:39:14;20.80;99.90
4050;DHT22;2039;50.894;6.888;2022-10-17T13:41:41;20.70;99.90
4050;DHT22;2039;50.894;6.888;2022-10-17T13:44:14;20.80;99.90
4050;DHT22;2039;50.894;6.888;2022-10-17T13:46:42;20.80;99.90
4050;DHT22;2039;50.894;6.888;2022-10-17T13:51:55;21.00;99.90
4050;DHT22;2039;50.894;6.888;2022-10-17T13:56:58;21.00;99.90
4050;DHT22;2039;50.894;6.888;2022-10-17T13:59:37;21.00;99.90
4050;DHT22;2039;50.894;6.888;2022-10-17T14:02:04;21.00;99.90
4050;DHT22;2039;50.894;6.888;2022-10-17T14:04:37;21.10;99.90
4050;DHT22;2039;50.894;6.888;2022-10-17T14:07:03;21.20;99.90
4050;DHT22;2039;50.894;6.888;2022-10-17T14:09:30;21.30;99.90
4050;DHT22;2039;50.894;6.888;2022-10-17T14:12:09;21.40;99.90
4050;DHT22;2039;50.894;6.888;2022-10-17T14:14:38;21.40;99.90
4050;DHT22;2039;50.894;6.888;2022-10-17T14:17:23;21.50;99.90
4050;DHT22;2039;50.894;6.888;2022-10-17T14:20:15;21.60;99.90
4050;DHT22;2039;50.894;6.888;2022-10-17T14:22:41;21.70;99.90
4050;DHT22;2039;50.894;6.888;2022-10-17T14:25:30;21.70;99.90
4050;DHT22;2039;50.894;6.888;2022-10-17T14:30:46;21.70;99.90
4050;DHT22;2039;50.894;6.888;2022-10-17T14:33:15;21.70;99.90
4050;DHT22;2039;50.894;6.888;2022-10-17T14:35:53;21.70;99.90
4050;DHT22;2039;50.894;6.888;2022-10-17T14:38:20;21.70;99.90
4050;DHT22;2039;50.894;6.888;2022-10-17T14:40:59;21.60;99.90
4050;DHT22;2039;50.894;6.888;2022-10-17T14:43:28;21.50;99.90
4050;DHT22;2039;50.894;6.888;2022-10-17T14:45:58;21.40;99.90
4050;DHT22;2039;50.894;6.888;2022-10-17T14:48:25;21.30;99.90
4050;DHT22;2039;50.894;6.888;2022-10-17T14:51:08;21.30;99.90
4050;DHT22;2039;50.894;6.888;2022-10-17T14:53:35;21.20;99.90
4050;DHT22;2039;50.894;6.888;2022-10-17T14:56:03;21.10;99.90
4050;DHT22;2039;50.894;6.888;2022-10-17T14:58:32;21.10;99.90
4050;DHT22;2039;50.894;6.888;2022-10-17T15:00:59;21.10;99.90
4050;DHT22;2039;50.894;6.888;2022-10-17T15:03:25;21.10;99.90
4050;DHT22;2039;50.894;6.888;2022-10-17T15:05:52;21.10;99.90
4050;DHT22;2039;50.894;6.888;2022-10-17T15:08:21;21.10;99.90
4050;DHT22;2039;50.894;6.888;2022-10-17T15:10:49;21.10;99.90
4050;DHT22;2039;50.894;6.888;2022-10-17T15:13:15;21.10;99.90
4050;DHT22;2039;50.894;6.888;2022-10-17T15:15:41;21.00;99.90
4050;DHT22;2039;50.894;6.888;2022-10-17T15:18:13;21.00;99.90
4050;DHT22;2039;50.894;6.888;2022-10-17T15:20:39;21.00;99.90
4050;DHT22;2039;50.894;6.888;2022-10-17T15:23:05;20.90;99.90
4050;DHT22;2039;50.894;6.888;2022-10-17T15:25:31;20.90;99.90
4050;DHT22;2039;50.894;6.888;2022-10-17T15:27:57;20.80;99.90
4050;DHT22;2039;50.894;6.888;2022-10-17T15:30:26;20.80;99.90
4050;DHT22;2039;50.894;6.888;2022-10-17T15:32:52;20.70;99.90
4050;DHT22;2039;50.894;6.888;2022-10-17T15:35:23;20.70;99.90
4050;DHT22;2039;50.894;6.888;2022-10-17T15:37:49;20.60;99.90
4050;DHT22;2039;50.894;6.888;2022-10-17T15:42:43;20.50;99.90
4050;DHT22;2039;50.894;6.888;2022-10-17T15:45:10;20.40;99.90
4050;DHT22;2039;50.894;6.888;2022-10-17T15:47:37;20.40;99.90
4050;DHT22;2039;50.894;6.888;2022-10-17T15:50:04;20.40;99.90
4050;DHT22;2039;50.894;6.888;2022-10-17T15:52:31;20.30;99.90
4050;DHT22;2039;50.894;6.888;2022-10-17T15:54:57;20.30;99.90
4050;DHT22;2039;50.894;6.888;2022-10-17T15:57:29;20.30;99.90
4050;DHT22;2039;50.894;6.888;2022-10-17T15:59:57;20.30;99.90
4050;DHT22;2039;50.894;6.888;2022-10-17T16:02:23;20.40;99.90
4050;DHT22;2039;50.894;6.888;2022-10-17T16:04:50;20.40;99.90
4050;DHT22;2039;50.894;6.888;2022-10-17T16:07:18;20.30;99.90
4050;DHT22;2039;50.894;6.888;2022-10-17T16:09:44;20.30;99.90
4050;DHT22;2039;50.894;6.888;2022-10-17T16:12:14;20.40;99.90
4050;DHT22;2039;50.894;6.888;2022-10-17T16:14:40;20.40;99.90
4050;DHT22;2039;50.894;6.888;2022-10-17T16:17:12;20.30;99.90
4050;DHT22;2039;50.894;6.888;2022-10-17T16:19:38;20.30;99.90
4050;DHT22;2039;50.894;6.888;2022-10-17T16:22:03;20.30;99.90
4050;DHT22;2039;50.894;6.888;2022-10-17T16:24:31;20.30;99.90
4050;DHT22;2039;50.894;6.888;2022-10-17T16:26:57;20.30;99.90
4050;DHT22;2039;50.894;6.888;2022-10-17T16:29:22;20.30;99.90
4050;DHT22;2039;50.894;6.888;2022-10-17T16:31:48;20.10;99.90
4050;DHT22;2039;50.894;6.888;2022-10-17T16:34:14;20.00;99.90
4050;DHT22;2039;50.894;6.888;2022-10-17T16:36:41;20.00;99.90
4050;DHT22;2039;50.894;6.888;2022-10-17T16:39:07;20.00;99.90
4050;DHT22;2039;50.894;6.888;2022-10-17T16:41:37;19.90;99.90
4050;DHT22;2039;50.894;6.888;2022-10-17T16:44:09;19.90;99.90
4050;DHT22;2039;50.894;6.888;2022-10-17T16:46:37;19.80;99.90
4050;DHT22;2039;50.894;6.888;2022-10-17T16:49:04;19.70;99.90
4050;DHT22;2039;50.894;6.888;2022-10-17T16:51:30;19.60;99.90
4050;DHT22;2039;50.894;6.888;2022-10-17T16:53:58;19.50;99.90
4050;DHT22;2039;50.894;6.888;2022-10-17T16:56:25;19.50;99.90
4050;DHT22;2039;50.894;6.888;2022-10-17T16:58:54;19.40;99.90
4050;DHT22;2039;50.894;6.888;2022-10-17T17:01:22;19.40;99.90
4050;DHT22;2039;50.894;6.888;2022-10-17T17:03:49;19.40;99.90
4050;DHT22;2039;50.894;6.888;2022-10-17T17:06:21;19.20;99.90
4050;DHT22;2039;50.894;6.888;2022-10-17T17:08:48;19.20;99.90
4050;DHT22;2039;50.894;6.888;2022-10-17T17:11:16;19.30;99.90
4050;DHT22;2039;50.894;6.888;2022-10-17T17:13:42;19.20;99.90
4050;DHT22;2039;50.894;6.888;2022-10-17T17:16:10;19.10;99.90
4050;DHT22;2039;50.894;6.888;2022-10-17T17:18:37;19.10;99.90
4050;DHT22;2039;50.894;6.888;2022-10-17T17:21:06;19.10;99.90
4050;DHT22;2039;50.894;6.888;2022-10-17T17:23:34;18.90;99.90
4050;DHT22;2039;50.894;6.888;2022-10-17T17:26:05;18.90;99.90
4050;DHT22;2039;50.894;6.888;2022-10-17T17:28:33;18.90;99.90
4050;DHT22;2039;50.894;6.888;2022-10-17T17:30:59;18.80;99.90
4050;DHT22;2039;50.894;6.888;2022-10-17T17:33:25;18.80;99.90
4050;DHT22;2039;50.894;6.888;2022-10-17T17:36:00;18.70;99.90
4050;DHT22;2039;50.894;6.888;2022-10-17T17:38:32;18.80;99.90
4050;DHT22;2039;50.894;6.888;2022-10-17T17:40:57;18.70;99.90
4050;DHT22;2039;50.894;6.888;2022-10-17T17:43:23;18.70;99.90
4050;DHT22;2039;50.894;6.888;2022-10-17T17:45:49;18.60;99.90
4050;DHT22;2039;50.894;6.888;2022-10-17T17:48:15;18.60;99.90
4050;DHT22;2039;50.894;6.888;2022-10-17T17:50:41;18.60;99.90
4050;DHT22;2039;50.894;6.888;2022-10-17T17:53:08;18.50;99.90
4050;DHT22;2039;50.894;6.888;2022-10-17T17:55:35;18.40;99.90
4050;DHT22;2039;50.894;6.888;2022-10-17T17:58:01;18.50;99.90
4050;DHT22;2039;50.894;6.888;2022-10-17T18:00:27;18.60;99.90
4050;DHT22;2039;50.894;6.888;2022-10-17T18:02:53;18.50;99.90
4050;DHT22;2039;50.894;6.888;2022-10-17T18:05:20;18.50;99.90
4050;DHT22;2039;50.894;6.888;2022-10-17T18:07:45;18.50;99.90
4050;DHT22;2039;50.894;6.888;2022-10-17T18:10:11;18.50;99.90
4050;DHT22;2039;50.894;6.888;2022-10-17T18:12:37;18.40;99.90
4050;DHT22;2039;50.894;6.888;2022-10-17T18:15:03;18.40;99.90
4050;DHT22;2039;50.894;6.888;2022-10-17T18:17:29;18.40;99.90
4050;DHT22;2039;50.894;6.888;2022-10-17T18:19:55;18.40;99.90
4050;DHT22;2039;50.894;6.888;2022-10-17T18:22:21;18.30;99.90